sensor_id;sensor_type;location;lat;lon;timestamp;P1;durP1;ratioP1;P2;durP2;ratioP2
64282;SDS011;50497;50.720;-2.084;2023-01-19T00:00:13;15.00;;;6.03;;
64282;SDS011;50497;50.720;-2.084;2023-01-19T00:02:39;13.80;;;5.57;;
64282;SDS011;50497;50.720;-2.084;2023-01-19T00:05:06;14.15;;;6.32;;
64282;SDS011;50497;50.720;-2.084;2023-01-19T00:07:32;13.68;;;4.90;;
64282;SDS011;50497;50.720;-2.084;2023-01-19T00:09:58;14.48;;;4.97;;
64282;SDS011;50497;50.720;-2.084;2023-01-19T00:12:23;11.10;;;4.28;;
64282;SDS011;50497;50.720;-2.084;2023-01-19T00:14:49;12.48;;;4.00;;
64282;SDS011;50497;50.720;-2.084;2023-01-19T00:17:14;12.35;;;3.97;;
64282;SDS011;50497;50.720;-2.084;2023-01-19T00:19:40;14.07;;;4.65;;
64282;SDS011;50497;50.720;-2.084;2023-01-19T00:22:05;13.07;;;4.30;;
64282;SDS011;50497;50.720;-2.084;2023-01-19T00:24:31;11.73;;;4.05;;
64282;SDS011;50497;50.720;-2.084;2023-01-19T00:26:57;12.07;;;4.10;;
64282;SDS011;50497;50.720;-2.084;2023-01-19T00:29:22;10.30;;;3.97;;
64282;SDS011;50497;50.720;-2.084;2023-01-19T00:31:48;11.18;;;4.20;;
64282;SDS011;50497;50.720;-2.084;2023-01-19T00:34:14;12.90;;;4.75;;
64282;SDS011;50497;50.720;-2.084;2023-01-19T00:36:39;14.23;;;4.50;;
64282;SDS011;50497;50.720;-2.084;2023-01-19T00:39:05;12.57;;;4.30;;
64282;SDS011;50497;50.720;-2.084;2023-01-19T00:41:30;13.25;;;4.65;;
64282;SDS011;50497;50.720;-2.084;2023-01-19T00:44:14;12.05;;;3.80;;
64282;SDS011;50497;50.720;-2.084;2023-01-19T00:46:40;9.23;;;3.67;;
64282;SDS011;50497;50.720;-2.084;2023-01-19T00:49:05;10.95;;;3.55;;
64282;SDS011;50497;50.720;-2.084;2023-01-19T00:51:31;9.45;;;3.67;;
64282;SDS011;50497;50.720;-2.084;2023-01-19T00:53:56;14.88;;;4.18;;
64282;SDS011;50497;50.720;-2.084;2023-01-19T00:56:23;10.73;;;4.03;;
64282;SDS011;50497;50.720;-2.084;2023-01-19T00:58:49;7.57;;;3.60;;
64282;SDS011;50497;50.720;-2.084;2023-01-19T01:01:14;11.07;;;3.60;;
64282;SDS011;50497;50.720;-2.084;2023-01-19T01:03:40;9.25;;;3.15;;
64282;SDS011;50497;50.720;-2.084;2023-01-19T01:06:06;11.65;;;3.78;;
64282;SDS011;50497;50.720;-2.084;2023-01-19T01:08:32;8.80;;;3.25;;
64282;SDS011;50497;50.720;-2.084;2023-01-19T01:10:59;11.23;;;3.40;;
64282;SDS011;50497;50.720;-2.084;2023-01-19T01:13:25;12.70;;;3.30;;
64282;SDS011;50497;50.720;-2.084;2023-01-19T01:15:51;8.73;;;3.25;;
64282;SDS011;50497;50.720;-2.084;2023-01-19T01:18:18;9.50;;;3.50;;
64282;SDS011;50497;50.720;-2.084;2023-01-19T01:20:43;11.73;;;3.85;;
64282;SDS011;50497;50.720;-2.084;2023-01-19T01:23:09;16.58;;;5.72;;
64282;SDS011;50497;50.720;-2.084;2023-01-19T01:25:34;13.25;;;5.25;;
64282;SDS011;50497;50.720;-2.084;2023-01-19T01:28:02;13.93;;;3.88;;
64282;SDS011;50497;50.720;-2.084;2023-01-19T01:30:30;12.85;;;4.47;;
64282;SDS011;50497;50.720;-2.084;2023-01-19T01:32:55;13.38;;;4.60;;
64282;SDS011;50497;50.720;-2.084;2023-01-19T01:35:21;19.13;;;6.78;;
64282;SDS011;50497;50.720;-2.084;2023-01-19T01:37:46;17.50;;;6.95;;
64282;SDS011;50497;50.720;-2.084;2023-01-19T01:40:12;15.25;;;7.07;;
64282;SDS011;50497;50.720;-2.084;2023-01-19T01:42:39;18.73;;;8.45;;
64282;SDS011;50497;50.720;-2.084;2023-01-19T01:45:14;14.45;;;6.35;;
64282;SDS011;50497;50.720;-2.084;2023-01-19T01:47:53;18.40;;;5.30;;
64282;SDS011;50497;50.720;-2.084;2023-01-19T01:50:22;17.67;;;5.85;;
64282;SDS011;50497;50.720;-2.084;2023-01-19T01:52:51;16.75;;;5.50;;
64282;SDS011;50497;50.720;-2.084;2023-01-19T01:55:22;15.98;;;5.65;;
64282;SDS011;50497;50.720;-2.084;2023-01-19T01:57:52;15.38;;;5.45;;
64282;SDS011;50497;50.720;-2.084;2023-01-19T02:00:21;18.70;;;5.78;;
64282;SDS011;50497;50.720;-2.084;2023-01-19T02:02:47;20.60;;;6.65;;
64282;SDS011;50497;50.720;-2.084;2023-01-19T02:05:18;16.85;;;6.68;;
64282;SDS011;50497;50.720;-2.084;2023-01-19T02:10:38;16.48;;;6.30;;
64282;SDS011;50497;50.720;-2.084;2023-01-19T02:13:23;15.82;;;5.95;;
64282;SDS011;50497;50.720;-2.084;2023-01-19T02:15:50;20.83;;;7.13;;
64282;SDS011;50497;50.720;-2.084;2023-01-19T02:18:19;16.40;;;6.32;;
64282;SDS011;50497;50.720;-2.084;2023-01-19T02:20:58;19.17;;;7.03;;
64282;SDS011;50497;50.720;-2.084;2023-01-19T02:23:41;19.13;;;6.78;;
64282;SDS011;50497;50.720;-2.084;2023-01-19T02:26:11;18.08;;;6.50;;
64282;SDS011;50497;50.720;-2.084;2023-01-19T02:28:41;18.70;;;7.05;;
64282;SDS011;50497;50.720;-2.084;2023-01-19T02:31:09;16.20;;;6.50;;
64282;SDS011;50497;50.720;-2.084;2023-01-19T02:33:35;19.13;;;7.00;;
64282;SDS011;50497;50.720;-2.084;2023-01-19T02:36:01;17.63;;;7.20;;
64282;SDS011;50497;50.720;-2.084;2023-01-19T02:38:27;17.88;;;7.00;;
64282;SDS011;50497;50.720;-2.084;2023-01-19T02:40:54;17.58;;;6.40;;
64282;SDS011;50497;50.720;-2.084;2023-01-19T02:43:23;15.90;;;6.47;;
64282;SDS011;50497;50.720;-2.084;2023-01-19T02:45:49;17.60;;;6.22;;
64282;SDS011;50497;50.720;-2.084;2023-01-19T02:48:15;16.15;;;6.43;;
64282;SDS011;50497;50.720;-2.084;2023-01-19T02:50:45;17.33;;;6.50;;
64282;SDS011;50497;50.720;-2.084;2023-01-19T02:56:24;18.33;;;6.43;;
64282;SDS011;50497;50.720;-2.084;2023-01-19T03:04:56;17.35;;;6.18;;
64282;SDS011;50497;50.720;-2.084;2023-01-19T03:07:48;18.80;;;5.90;;
64282;SDS011;50497;50.720;-2.084;2023-01-19T03:15:57;15.70;;;6.13;;
64282;SDS011;50497;50.720;-2.084;2023-01-19T03:18:35;14.55;;;5.88;;
64282;SDS011;50497;50.720;-2.084;2023-01-19T03:21:04;17.15;;;6.43;;
64282;SDS011;50497;50.720;-2.084;2023-01-19T03:25:58;16.48;;;5.78;;
64282;SDS011;50497;50.720;-2.084;2023-01-19T03:30:55;16.75;;;6.03;;
64282;SDS011;50497;50.720;-2.084;2023-01-19T03:33:26;14.18;;;5.60;;
64282;SDS011;50497;50.720;-2.084;2023-01-19T03:35:59;17.88;;;6.03;;
64282;SDS011;50497;50.720;-2.084;2023-01-19T03:38:31;15.25;;;6.00;;
64282;SDS011;50497;50.720;-2.084;2023-01-19T03:41:01;16.67;;;5.82;;
64282;SDS011;50497;50.720;-2.084;2023-01-19T03:43:29;14.52;;;6.00;;
64282;SDS011;50497;50.720;-2.084;2023-01-19T03:45:56;16.65;;;6.15;;
64282;SDS011;50497;50.720;-2.084;2023-01-19T03:48:22;17.58;;;6.25;;
64282;SDS011;50497;50.720;-2.084;2023-01-19T03:50:48;15.98;;;5.85;;
64282;SDS011;50497;50.720;-2.084;2023-01-19T03:53:15;15.88;;;5.85;;
64282;SDS011;50497;50.720;-2.084;2023-01-19T03:55:45;13.00;;;5.50;;
64282;SDS011;50497;50.720;-2.084;2023-01-19T03:58:12;17.10;;;6.03;;
64282;SDS011;50497;50.720;-2.084;2023-01-19T04:00:38;19.30;;;6.18;;
64282;SDS011;50497;50.720;-2.084;2023-01-19T04:03:04;17.42;;;6.32;;
64282;SDS011;50497;50.720;-2.084;2023-01-19T04:05:31;14.63;;;6.05;;
64282;SDS011;50497;50.720;-2.084;2023-01-19T04:07:56;16.20;;;5.55;;
64282;SDS011;50497;50.720;-2.084;2023-01-19T04:10:22;14.77;;;5.50;;
64282;SDS011;50497;50.720;-2.084;2023-01-19T04:12:48;11.07;;;5.00;;
64282;SDS011;50497;50.720;-2.084;2023-01-19T04:15:14;15.50;;;4.95;;
64282;SDS011;50497;50.720;-2.084;2023-01-19T04:17:39;14.05;;;4.85;;
64282;SDS011;50497;50.720;-2.084;2023-01-19T04:20:06;13.27;;;4.40;;
64282;SDS011;50497;50.720;-2.084;2023-01-19T04:22:32;12.10;;;4.50;;
64282;SDS011;50497;50.720;-2.084;2023-01-19T04:24:57;10.52;;;4.35;;
64282;SDS011;50497;50.720;-2.084;2023-01-19T04:27:23;12.10;;;4.07;;
64282;SDS011;50497;50.720;-2.084;2023-01-19T04:29:50;12.98;;;3.72;;
64282;SDS011;50497;50.720;-2.084;2023-01-19T04:32:15;12.48;;;4.25;;
64282;SDS011;50497;50.720;-2.084;2023-01-19T04:34:41;18.25;;;4.85;;
64282;SDS011;50497;50.720;-2.084;2023-01-19T04:37:06;12.48;;;4.40;;
64282;SDS011;50497;50.720;-2.084;2023-01-19T04:39:32;12.85;;;4.10;;
64282;SDS011;50497;50.720;-2.084;2023-01-19T04:42:01;12.20;;;3.88;;
64282;SDS011;50497;50.720;-2.084;2023-01-19T04:44:27;11.75;;;3.78;;
64282;SDS011;50497;50.720;-2.084;2023-01-19T04:46:53;11.82;;;4.00;;
64282;SDS011;50497;50.720;-2.084;2023-01-19T04:49:18;12.75;;;3.70;;
64282;SDS011;50497;50.720;-2.084;2023-01-19T04:51:44;12.32;;;3.95;;
64282;SDS011;50497;50.720;-2.084;2023-01-19T04:54:09;12.40;;;3.55;;
64282;SDS011;50497;50.720;-2.084;2023-01-19T04:56:35;10.63;;;3.85;;
64282;SDS011;50497;50.720;-2.084;2023-01-19T04:59:01;13.38;;;4.05;;
64282;SDS011;50497;50.720;-2.084;2023-01-19T05:01:26;13.57;;;3.70;;
64282;SDS011;50497;50.720;-2.084;2023-01-19T05:03:52;11.48;;;3.90;;
64282;SDS011;50497;50.720;-2.084;2023-01-19T05:06:17;11.25;;;3.97;;
64282;SDS011;50497;50.720;-2.084;2023-01-19T05:08:43;13.63;;;3.70;;
64282;SDS011;50497;50.720;-2.084;2023-01-19T05:11:08;7.63;;;3.10;;
64282;SDS011;50497;50.720;-2.084;2023-01-19T05:13:33;8.13;;;3.05;;
64282;SDS011;50497;50.720;-2.084;2023-01-19T05:15:59;10.10;;;3.50;;
64282;SDS011;50497;50.720;-2.084;2023-01-19T05:18:25;11.18;;;3.33;;
64282;SDS011;50497;50.720;-2.084;2023-01-19T05:20:50;11.02;;;3.78;;
64282;SDS011;50497;50.720;-2.084;2023-01-19T05:23:15;14.70;;;4.18;;
64282;SDS011;50497;50.720;-2.084;2023-01-19T05:25:41;9.30;;;3.35;;
64282;SDS011;50497;50.720;-2.084;2023-01-19T05:28:07;10.50;;;3.33;;
64282;SDS011;50497;50.720;-2.084;2023-01-19T05:30:32;9.80;;;3.33;;
64282;SDS011;50497;50.720;-2.084;2023-01-19T05:32:58;9.90;;;3.40;;
64282;SDS011;50497;50.720;-2.084;2023-01-19T05:35:23;9.48;;;3.60;;
64282;SDS011;50497;50.720;-2.084;2023-01-19T05:37:49;9.40;;;3.30;;
64282;SDS011;50497;50.720;-2.084;2023-01-19T05:40:14;10.88;;;3.20;;
64282;SDS011;50497;50.720;-2.084;2023-01-19T05:42:40;11.30;;;4.28;;
64282;SDS011;50497;50.720;-2.084;2023-01-19T05:45:06;11.63;;;3.75;;
64282;SDS011;50497;50.720;-2.084;2023-01-19T05:47:31;10.13;;;3.33;;
64282;SDS011;50497;50.720;-2.084;2023-01-19T05:49:57;11.23;;;3.83;;
64282;SDS011;50497;50.720;-2.084;2023-01-19T05:52:22;10.18;;;3.70;;
64282;SDS011;50497;50.720;-2.084;2023-01-19T05:54:49;10.60;;;3.42;;
64282;SDS011;50497;50.720;-2.084;2023-01-19T05:57:15;11.60;;;3.72;;
64282;SDS011;50497;50.720;-2.084;2023-01-19T05:59:42;13.73;;;3.97;;
64282;SDS011;50497;50.720;-2.084;2023-01-19T06:02:07;9.63;;;3.50;;
64282;SDS011;50497;50.720;-2.084;2023-01-19T06:04:33;10.05;;;3.58;;
64282;SDS011;50497;50.720;-2.084;2023-01-19T06:06:58;10.00;;;3.80;;
64282;SDS011;50497;50.720;-2.084;2023-01-19T06:09:23;10.55;;;3.80;;
64282;SDS011;50497;50.720;-2.084;2023-01-19T06:11:49;12.07;;;3.90;;
64282;SDS011;50497;50.720;-2.084;2023-01-19T06:14:14;14.15;;;3.67;;
64282;SDS011;50497;50.720;-2.084;2023-01-19T06:16:40;15.80;;;3.95;;
64282;SDS011;50497;50.720;-2.084;2023-01-19T06:19:05;11.15;;;3.85;;
64282;SDS011;50497;50.720;-2.084;2023-01-19T06:21:31;10.85;;;3.97;;
64282;SDS011;50497;50.720;-2.084;2023-01-19T06:23:56;12.40;;;4.70;;
64282;SDS011;50497;50.720;-2.084;2023-01-19T06:26:22;14.95;;;4.63;;
64282;SDS011;50497;50.720;-2.084;2023-01-19T06:28:49;12.02;;;4.72;;
64282;SDS011;50497;50.720;-2.084;2023-01-19T06:31:15;12.35;;;4.47;;
64282;SDS011;50497;50.720;-2.084;2023-01-19T06:33:40;15.77;;;5.30;;
64282;SDS011;50497;50.720;-2.084;2023-01-19T06:36:06;16.10;;;4.75;;
64282;SDS011;50497;50.720;-2.084;2023-01-19T06:38:31;12.55;;;5.13;;
64282;SDS011;50497;50.720;-2.084;2023-01-19T06:40:57;11.18;;;4.53;;
64282;SDS011;50497;50.720;-2.084;2023-01-19T06:43:23;13.23;;;4.75;;
64282;SDS011;50497;50.720;-2.084;2023-01-19T06:45:50;16.80;;;4.78;;
64282;SDS011;50497;50.720;-2.084;2023-01-19T06:48:15;13.05;;;4.28;;
64282;SDS011;50497;50.720;-2.084;2023-01-19T06:50:43;12.82;;;4.28;;
64282;SDS011;50497;50.720;-2.084;2023-01-19T06:53:09;12.93;;;4.68;;
64282;SDS011;50497;50.720;-2.084;2023-01-19T06:55:35;15.18;;;5.03;;
64282;SDS011;50497;50.720;-2.084;2023-01-19T06:58:01;13.55;;;4.22;;
64282;SDS011;50497;50.720;-2.084;2023-01-19T07:00:26;14.98;;;4.85;;
64282;SDS011;50497;50.720;-2.084;2023-01-19T07:02:53;16.92;;;5.15;;
64282;SDS011;50497;50.720;-2.084;2023-01-19T07:05:19;15.63;;;5.40;;
64282;SDS011;50497;50.720;-2.084;2023-01-19T07:07:49;13.95;;;5.20;;
64282;SDS011;50497;50.720;-2.084;2023-01-19T07:12:45;14.95;;;5.60;;
64282;SDS011;50497;50.720;-2.084;2023-01-19T07:15:12;12.88;;;4.68;;
64282;SDS011;50497;50.720;-2.084;2023-01-19T07:17:38;12.95;;;4.22;;
64282;SDS011;50497;50.720;-2.084;2023-01-19T07:20:06;16.30;;;5.35;;
64282;SDS011;50497;50.720;-2.084;2023-01-19T07:22:33;14.77;;;5.30;;
64282;SDS011;50497;50.720;-2.084;2023-01-19T07:24:58;13.40;;;4.72;;
64282;SDS011;50497;50.720;-2.084;2023-01-19T07:27:24;16.50;;;5.68;;
64282;SDS011;50497;50.720;-2.084;2023-01-19T07:29:52;15.45;;;5.85;;
64282;SDS011;50497;50.720;-2.084;2023-01-19T07:32:17;13.10;;;5.05;;
64282;SDS011;50497;50.720;-2.084;2023-01-19T07:34:43;13.07;;;4.90;;
64282;SDS011;50497;50.720;-2.084;2023-01-19T07:37:09;12.77;;;4.60;;
64282;SDS011;50497;50.720;-2.084;2023-01-19T07:39:34;12.73;;;4.50;;
64282;SDS011;50497;50.720;-2.084;2023-01-19T07:42:00;11.65;;;4.22;;
64282;SDS011;50497;50.720;-2.084;2023-01-19T07:44:26;9.07;;;3.72;;
64282;SDS011;50497;50.720;-2.084;2023-01-19T07:46:51;11.68;;;4.30;;
64282;SDS011;50497;50.720;-2.084;2023-01-19T07:49:17;9.75;;;3.88;;
64282;SDS011;50497;50.720;-2.084;2023-01-19T07:51:44;12.10;;;4.43;;
64282;SDS011;50497;50.720;-2.084;2023-01-19T07:54:10;11.88;;;4.78;;
64282;SDS011;50497;50.720;-2.084;2023-01-19T07:56:35;13.32;;;5.55;;
64282;SDS011;50497;50.720;-2.084;2023-01-19T07:59:01;17.05;;;7.35;;
64282;SDS011;50497;50.720;-2.084;2023-01-19T08:01:26;18.02;;;8.13;;
64282;SDS011;50497;50.720;-2.084;2023-01-19T08:03:52;19.60;;;7.70;;
64282;SDS011;50497;50.720;-2.084;2023-01-19T08:06:26;16.15;;;6.88;;
64282;SDS011;50497;50.720;-2.084;2023-01-19T08:08:56;14.13;;;6.25;;
64282;SDS011;50497;50.720;-2.084;2023-01-19T08:11:22;15.02;;;5.82;;
64282;SDS011;50497;50.720;-2.084;2023-01-19T08:13:47;14.60;;;5.93;;
64282;SDS011;50497;50.720;-2.084;2023-01-19T08:16:13;21.35;;;9.18;;
64282;SDS011;50497;50.720;-2.084;2023-01-19T08:18:38;21.45;;;9.02;;
64282;SDS011;50497;50.720;-2.084;2023-01-19T08:21:03;17.65;;;7.20;;
64282;SDS011;50497;50.720;-2.084;2023-01-19T08:23:29;17.83;;;7.35;;
64282;SDS011;50497;50.720;-2.084;2023-01-19T08:25:54;18.63;;;7.25;;
64282;SDS011;50497;50.720;-2.084;2023-01-19T08:28:20;14.45;;;6.55;;
64282;SDS011;50497;50.720;-2.084;2023-01-19T08:30:46;15.77;;;6.10;;
64282;SDS011;50497;50.720;-2.084;2023-01-19T08:33:21;17.48;;;7.15;;
64282;SDS011;50497;50.720;-2.084;2023-01-19T08:35:48;18.48;;;7.43;;
64282;SDS011;50497;50.720;-2.084;2023-01-19T08:38:15;18.92;;;7.28;;
64282;SDS011;50497;50.720;-2.084;2023-01-19T08:40:41;16.23;;;6.78;;
64282;SDS011;50497;50.720;-2.084;2023-01-19T08:43:08;18.30;;;6.35;;
64282;SDS011;50497;50.720;-2.084;2023-01-19T08:45:36;40.65;;;17.27;;
64282;SDS011;50497;50.720;-2.084;2023-01-19T08:48:05;32.13;;;13.20;;
64282;SDS011;50497;50.720;-2.084;2023-01-19T08:50:31;26.77;;;11.45;;
64282;SDS011;50497;50.720;-2.084;2023-01-19T08:53:02;27.80;;;9.68;;
64282;SDS011;50497;50.720;-2.084;2023-01-19T08:55:30;22.70;;;8.75;;
64282;SDS011;50497;50.720;-2.084;2023-01-19T08:57:56;21.63;;;8.23;;
64282;SDS011;50497;50.720;-2.084;2023-01-19T09:00:22;21.08;;;8.00;;
64282;SDS011;50497;50.720;-2.084;2023-01-19T09:02:49;17.52;;;7.07;;
64282;SDS011;50497;50.720;-2.084;2023-01-19T09:05:15;18.20;;;6.65;;
64282;SDS011;50497;50.720;-2.084;2023-01-19T09:07:42;16.15;;;5.90;;
64282;SDS011;50497;50.720;-2.084;2023-01-19T09:10:08;15.63;;;5.65;;
64282;SDS011;50497;50.720;-2.084;2023-01-19T09:12:34;13.00;;;4.78;;
64282;SDS011;50497;50.720;-2.084;2023-01-19T09:15:00;14.55;;;5.03;;
64282;SDS011;50497;50.720;-2.084;2023-01-19T09:17:25;12.40;;;5.15;;
64282;SDS011;50497;50.720;-2.084;2023-01-19T09:19:51;13.35;;;4.80;;
64282;SDS011;50497;50.720;-2.084;2023-01-19T09:22:16;12.98;;;5.13;;
64282;SDS011;50497;50.720;-2.084;2023-01-19T09:24:42;10.32;;;4.43;;
64282;SDS011;50497;50.720;-2.084;2023-01-19T09:27:07;11.43;;;4.60;;
64282;SDS011;50497;50.720;-2.084;2023-01-19T09:29:33;11.40;;;4.70;;
64282;SDS011;50497;50.720;-2.084;2023-01-19T09:31:58;14.55;;;4.60;;
64282;SDS011;50497;50.720;-2.084;2023-01-19T09:34:23;10.98;;;4.15;;
64282;SDS011;50497;50.720;-2.084;2023-01-19T09:36:52;12.40;;;4.15;;
64282;SDS011;50497;50.720;-2.084;2023-01-19T09:39:18;12.50;;;4.20;;
64282;SDS011;50497;50.720;-2.084;2023-01-19T09:41:44;10.35;;;4.28;;
64282;SDS011;50497;50.720;-2.084;2023-01-19T09:44:47;9.27;;;4.13;;
64282;SDS011;50497;50.720;-2.084;2023-01-19T09:47:14;8.15;;;4.00;;
64282;SDS011;50497;50.720;-2.084;2023-01-19T09:49:51;8.95;;;3.83;;
64282;SDS011;50497;50.720;-2.084;2023-01-19T09:52:23;11.38;;;4.40;;
64282;SDS011;50497;50.720;-2.084;2023-01-19T09:54:55;10.48;;;4.82;;
64282;SDS011;50497;50.720;-2.084;2023-01-19T09:57:22;16.20;;;6.60;;
64282;SDS011;50497;50.720;-2.084;2023-01-19T09:59:49;17.83;;;7.47;;
64282;SDS011;50497;50.720;-2.084;2023-01-19T10:02:25;23.67;;;9.25;;
64282;SDS011;50497;50.720;-2.084;2023-01-19T10:04:58;31.73;;;13.43;;
64282;SDS011;50497;50.720;-2.084;2023-01-19T10:10:20;29.45;;;13.85;;
64282;SDS011;50497;50.720;-2.084;2023-01-19T10:13:09;19.73;;;10.00;;
64282;SDS011;50497;50.720;-2.084;2023-01-19T10:18:17;16.58;;;6.80;;
64282;SDS011;50497;50.720;-2.084;2023-01-19T10:29:01;13.73;;;4.97;;
64282;SDS011;50497;50.720;-2.084;2023-01-19T10:31:31;11.20;;;5.63;;
64282;SDS011;50497;50.720;-2.084;2023-01-19T10:33:59;12.60;;;5.80;;
64282;SDS011;50497;50.720;-2.084;2023-01-19T10:36:44;14.32;;;6.43;;
64282;SDS011;50497;50.720;-2.084;2023-01-19T10:39:14;13.82;;;5.53;;
64282;SDS011;50497;50.720;-2.084;2023-01-19T10:41:50;10.75;;;5.47;;
64282;SDS011;50497;50.720;-2.084;2023-01-19T10:44:24;10.45;;;5.05;;
64282;SDS011;50497;50.720;-2.084;2023-01-19T10:46:51;9.52;;;4.78;;
64282;SDS011;50497;50.720;-2.084;2023-01-19T10:49:27;9.57;;;4.35;;
64282;SDS011;50497;50.720;-2.084;2023-01-19T10:51:55;11.38;;;5.10;;
64282;SDS011;50497;50.720;-2.084;2023-01-19T10:54:23;11.20;;;5.53;;
64282;SDS011;50497;50.720;-2.084;2023-01-19T10:56:52;13.02;;;4.95;;
64282;SDS011;50497;50.720;-2.084;2023-01-19T11:04:51;8.50;;;2.92;;
64282;SDS011;50497;50.720;-2.084;2023-01-19T11:10:12;7.05;;;2.17;;
64282;SDS011;50497;50.720;-2.084;2023-01-19T11:18:05;7.07;;;2.30;;
64282;SDS011;50497;50.720;-2.084;2023-01-19T11:23:18;6.80;;;2.13;;
64282;SDS011;50497;50.720;-2.084;2023-01-19T11:25:49;5.85;;;1.90;;
64282;SDS011;50497;50.720;-2.084;2023-01-19T11:28:19;6.00;;;1.83;;
64282;SDS011;50497;50.720;-2.084;2023-01-19T11:30:55;5.60;;;1.98;;
64282;SDS011;50497;50.720;-2.084;2023-01-19T11:33:33;8.18;;;2.05;;
64282;SDS011;50497;50.720;-2.084;2023-01-19T11:36:23;7.38;;;2.10;;
64282;SDS011;50497;50.720;-2.084;2023-01-19T11:41:48;17.13;;;9.23;;
64282;SDS011;50497;50.720;-2.084;2023-01-19T11:44:24;17.50;;;9.00;;
64282;SDS011;50497;50.720;-2.084;2023-01-19T11:46:57;15.38;;;7.30;;
64282;SDS011;50497;50.720;-2.084;2023-01-19T11:49:26;12.23;;;5.97;;
64282;SDS011;50497;50.720;-2.084;2023-01-19T11:52:11;8.73;;;3.63;;
64282;SDS011;50497;50.720;-2.084;2023-01-19T11:54:56;13.68;;;6.07;;
64282;SDS011;50497;50.720;-2.084;2023-01-19T11:57:25;10.13;;;4.30;;
64282;SDS011;50497;50.720;-2.084;2023-01-19T11:59:52;9.02;;;2.00;;
64282;SDS011;50497;50.720;-2.084;2023-01-19T12:02:22;10.02;;;4.35;;
64282;SDS011;50497;50.720;-2.084;2023-01-19T12:04:54;9.80;;;4.72;;
64282;SDS011;50497;50.720;-2.084;2023-01-19T12:07:25;5.40;;;1.77;;
64282;SDS011;50497;50.720;-2.084;2023-01-19T12:10:05;13.18;;;5.57;;
64282;SDS011;50497;50.720;-2.084;2023-01-19T12:12:42;9.43;;;2.40;;
64282;SDS011;50497;50.720;-2.084;2023-01-19T12:15:31;7.68;;;2.20;;
64282;SDS011;50497;50.720;-2.084;2023-01-19T12:17:54;7.93;;;2.33;;
64282;SDS011;50497;50.720;-2.084;2023-01-19T12:25:46;6.65;;;2.47;;
64282;SDS011;50497;50.720;-2.084;2023-01-19T12:28:36;6.20;;;2.00;;
64282;SDS011;50497;50.720;-2.084;2023-01-19T12:31:06;7.38;;;2.20;;
64282;SDS011;50497;50.720;-2.084;2023-01-19T12:38:49;5.50;;;1.85;;
64282;SDS011;50497;50.720;-2.084;2023-01-19T12:41:37;6.13;;;1.98;;
64282;SDS011;50497;50.720;-2.084;2023-01-19T12:54:59;5.90;;;2.45;;
64282;SDS011;50497;50.720;-2.084;2023-01-19T12:57:34;7.15;;;1.90;;
64282;SDS011;50497;50.720;-2.084;2023-01-19T13:02:49;5.97;;;2.00;;
64282;SDS011;50497;50.720;-2.084;2023-01-19T13:05:21;8.55;;;1.83;;
64282;SDS011;50497;50.720;-2.084;2023-01-19T13:18:42;8.05;;;2.90;;
64282;SDS011;50497;50.720;-2.084;2023-01-19T13:21:30;13.63;;;5.00;;
64282;SDS011;50497;50.720;-2.084;2023-01-19T13:24:04;13.10;;;5.55;;
64282;SDS011;50497;50.720;-2.084;2023-01-19T13:26:32;19.20;;;6.90;;
64282;SDS011;50497;50.720;-2.084;2023-01-19T13:29:06;14.98;;;5.90;;
64282;SDS011;50497;50.720;-2.084;2023-01-19T13:31:35;18.17;;;7.35;;
64282;SDS011;50497;50.720;-2.084;2023-01-19T13:34:03;16.52;;;5.53;;
64282;SDS011;50497;50.720;-2.084;2023-01-19T13:36:40;12.40;;;5.35;;
64282;SDS011;50497;50.720;-2.084;2023-01-19T13:39:13;14.68;;;6.10;;
64282;SDS011;50497;50.720;-2.084;2023-01-19T13:41:44;13.35;;;5.38;;
64282;SDS011;50497;50.720;-2.084;2023-01-19T13:46:58;14.23;;;6.32;;
64282;SDS011;50497;50.720;-2.084;2023-01-19T13:52:23;12.70;;;6.47;;
64282;SDS011;50497;50.720;-2.084;2023-01-19T13:54:55;13.90;;;7.10;;
64282;SDS011;50497;50.720;-2.084;2023-01-19T13:57:26;14.90;;;6.38;;
64282;SDS011;50497;50.720;-2.084;2023-01-19T14:02:28;9.63;;;3.95;;
64282;SDS011;50497;50.720;-2.084;2023-01-19T14:04:54;9.60;;;3.45;;
64282;SDS011;50497;50.720;-2.084;2023-01-19T14:07:21;9.07;;;3.03;;
64282;SDS011;50497;50.720;-2.084;2023-01-19T14:10:03;8.23;;;2.60;;
64282;SDS011;50497;50.720;-2.084;2023-01-19T14:12:30;10.38;;;3.00;;
64282;SDS011;50497;50.720;-2.084;2023-01-19T14:14:59;8.18;;;3.40;;
64282;SDS011;50497;50.720;-2.084;2023-01-19T14:17:28;9.50;;;3.30;;
64282;SDS011;50497;50.720;-2.084;2023-01-19T14:19:58;7.97;;;2.45;;
64282;SDS011;50497;50.720;-2.084;2023-01-19T14:22:44;5.10;;;1.92;;
64282;SDS011;50497;50.720;-2.084;2023-01-19T14:25:27;5.80;;;1.75;;
64282;SDS011;50497;50.720;-2.084;2023-01-19T14:30:56;6.68;;;1.90;;
64282;SDS011;50497;50.720;-2.084;2023-01-19T14:33:41;5.82;;;1.95;;
64282;SDS011;50497;50.720;-2.084;2023-01-19T14:38:37;8.00;;;2.80;;
64282;SDS011;50497;50.720;-2.084;2023-01-19T14:41:10;8.32;;;2.70;;
64282;SDS011;50497;50.720;-2.084;2023-01-19T14:43:43;9.48;;;3.20;;
64282;SDS011;50497;50.720;-2.084;2023-01-19T14:46:18;13.82;;;6.28;;
64282;SDS011;50497;50.720;-2.084;2023-01-19T14:51:16;9.57;;;3.80;;
64282;SDS011;50497;50.720;-2.084;2023-01-19T14:53:52;10.77;;;3.75;;
64282;SDS011;50497;50.720;-2.084;2023-01-19T14:56:23;10.65;;;4.53;;
64282;SDS011;50497;50.720;-2.084;2023-01-19T14:58:54;8.02;;;3.58;;
64282;SDS011;50497;50.720;-2.084;2023-01-19T15:01:21;13.80;;;4.70;;
64282;SDS011;50497;50.720;-2.084;2023-01-19T15:03:48;23.45;;;10.85;;
64282;SDS011;50497;50.720;-2.084;2023-01-19T15:06:18;14.57;;;5.65;;
64282;SDS011;50497;50.720;-2.084;2023-01-19T15:08:48;24.35;;;9.57;;
64282;SDS011;50497;50.720;-2.084;2023-01-19T15:11:21;11.18;;;4.00;;
64282;SDS011;50497;50.720;-2.084;2023-01-19T15:13:58;10.90;;;4.20;;
64282;SDS011;50497;50.720;-2.084;2023-01-19T15:16:25;15.75;;;6.95;;
64282;SDS011;50497;50.720;-2.084;2023-01-19T15:18:53;15.40;;;4.70;;
64282;SDS011;50497;50.720;-2.084;2023-01-19T15:21:19;31.27;;;13.90;;
64282;SDS011;50497;50.720;-2.084;2023-01-19T15:23:50;13.35;;;5.07;;
64282;SDS011;50497;50.720;-2.084;2023-01-19T15:26:20;12.25;;;4.95;;
64282;SDS011;50497;50.720;-2.084;2023-01-19T15:28:47;13.23;;;5.18;;
64282;SDS011;50497;50.720;-2.084;2023-01-19T15:31:14;11.38;;;4.93;;
64282;SDS011;50497;50.720;-2.084;2023-01-19T15:33:42;13.40;;;6.25;;
64282;SDS011;50497;50.720;-2.084;2023-01-19T15:36:11;14.68;;;6.07;;
64282;SDS011;50497;50.720;-2.084;2023-01-19T15:38:40;11.90;;;4.97;;
64282;SDS011;50497;50.720;-2.084;2023-01-19T15:41:13;15.95;;;7.97;;
64282;SDS011;50497;50.720;-2.084;2023-01-19T15:43:49;12.98;;;4.75;;
64282;SDS011;50497;50.720;-2.084;2023-01-19T15:46:16;14.88;;;6.72;;
64282;SDS011;50497;50.720;-2.084;2023-01-19T15:48:43;11.85;;;5.72;;
64282;SDS011;50497;50.720;-2.084;2023-01-19T15:51:12;14.00;;;5.40;;
64282;SDS011;50497;50.720;-2.084;2023-01-19T15:53:38;11.63;;;5.07;;
64282;SDS011;50497;50.720;-2.084;2023-01-19T15:56:05;14.20;;;6.32;;
64282;SDS011;50497;50.720;-2.084;2023-01-19T15:58:30;15.80;;;7.40;;
64282;SDS011;50497;50.720;-2.084;2023-01-19T16:00:56;15.32;;;6.30;;
64282;SDS011;50497;50.720;-2.084;2023-01-19T16:03:23;16.40;;;7.22;;
64282;SDS011;50497;50.720;-2.084;2023-01-19T16:05:50;15.40;;;7.32;;
64282;SDS011;50497;50.720;-2.084;2023-01-19T16:08:16;14.13;;;5.55;;
64282;SDS011;50497;50.720;-2.084;2023-01-19T16:10:41;16.40;;;7.57;;
64282;SDS011;50497;50.720;-2.084;2023-01-19T16:13:08;17.00;;;7.72;;
64282;SDS011;50497;50.720;-2.084;2023-01-19T16:15:35;17.17;;;7.82;;
64282;SDS011;50497;50.720;-2.084;2023-01-19T16:18:02;20.60;;;9.38;;
64282;SDS011;50497;50.720;-2.084;2023-01-19T16:20:28;14.98;;;7.50;;